createdAt,value
2023-04-07T00:01:25.833Z,6.54
2023-04-07T00:03:55.226Z,6.52
2023-04-07T00:06:23.813Z,6.51
2023-04-07T00:08:57.058Z,6.48
2023-04-07T00:11:25.674Z,6.44
2023-04-07T00:13:54.152Z,6.41
2023-04-07T00:16:23.176Z,6.37
2023-04-07T00:18:52.434Z,6.34
2023-04-07T00:21:20.779Z,6.33
2023-04-07T00:23:49.294Z,6.35
2023-04-07T00:26:17.701Z,6.34
2023-04-07T00:28:46.997Z,6.32
2023-04-07T00:31:23.080Z,6.28
2023-04-07T00:33:51.380Z,6.23
2023-04-07T00:36:19.545Z,6.21
2023-04-07T00:38:47.678Z,6.20
2023-04-07T00:41:16.084Z,6.16
2023-04-07T00:43:44.576Z,6.12
2023-04-07T00:46:13.448Z,6.06
2023-04-07T00:48:45.057Z,6.04
2023-04-07T00:51:13.725Z,6.01
2023-04-07T00:53:42.080Z,5.95
2023-04-07T00:56:10.980Z,5.93
2023-04-07T00:58:39.334Z,5.91
2023-04-07T01:01:11.561Z,5.92
2023-04-07T01:03:55.180Z,5.92
2023-04-07T01:06:26.975Z,5.91
2023-04-07T01:09:14.130Z,5.89
2023-04-07T01:12:07.785Z,5.84
2023-04-07T01:14:41.306Z,5.80
2023-04-07T01:17:27.513Z,5.78
2023-04-07T01:19:59.601Z,5.78
2023-04-07T01:22:48.072Z,5.79
2023-04-07T01:25:23.775Z,5.80
2023-04-07T01:28:00.618Z,5.82
2023-04-07T01:30:30.491Z,5.85
2023-04-07T01:33:00.957Z,5.86
2023-04-07T01:35:33.417Z,5.85
2023-04-07T01:38:01.652Z,5.84
2023-04-07T01:40:30.208Z,5.81
2023-04-07T01:42:58.504Z,5.77
2023-04-07T01:45:27.053Z,5.75
2023-04-07T01:47:55.559Z,5.73
2023-04-07T01:50:24.044Z,5.68
2023-04-07T01:52:53.222Z,5.64
2023-04-07T01:55:21.683Z,5.61
2023-04-07T01:58:06.502Z,5.58
2023-04-07T02:00:36.413Z,5.59
2023-04-07T02:03:32.087Z,5.59
2023-04-07T02:06:04.498Z,5.59
2023-04-07T02:08:33.234Z,5.61
2023-04-07T02:11:03.870Z,5.62
2023-04-07T02:13:35.935Z,5.62
2023-04-07T02:16:04.347Z,5.64
2023-04-07T02:18:34.382Z,5.67
2023-04-07T02:21:02.976Z,5.69
2023-04-07T02:23:31.207Z,5.70
2023-04-07T02:25:59.358Z,5.72
2023-04-07T02:28:27.928Z,5.72
2023-04-07T02:30:56.379Z,5.72
2023-04-07T02:33:25.874Z,5.73
2023-04-07T02:35:54.202Z,5.73
2023-04-07T02:38:23.609Z,5.72
2023-04-07T02:40:52.224Z,5.71
2023-04-07T02:43:21.375Z,5.69
2023-04-07T02:45:52.837Z,5.69
2023-04-07T02:48:21.302Z,5.69
2023-04-07T02:50:49.769Z,5.68
2023-04-07T02:53:19.793Z,5.64
2023-04-07T02:55:48.140Z,5.62
2023-04-07T02:58:16.665Z,5.61
2023-04-07T03:00:45.613Z,5.64
2023-04-07T03:03:23.332Z,5.65
2023-04-07T03:06:06.129Z,5.62
2023-04-07T03:08:35.740Z,5.59
2023-04-07T03:11:07.149Z,5.58
2023-04-07T03:13:35.808Z,5.58
2023-04-07T03:16:07.996Z,5.55
2023-04-07T03:18:45.950Z,5.51
2023-04-07T03:21:14.460Z,5.48
2023-04-07T03:23:43.003Z,5.44
2023-04-07T03:26:11.503Z,5.39
2023-04-07T03:28:40.055Z,5.35
2023-04-07T03:31:10.884Z,5.34
2023-04-07T03:33:39.275Z,5.33
2023-04-07T03:36:08.440Z,5.32
2023-04-07T03:38:37.079Z,5.31
2023-04-07T03:41:05.765Z,5.31
2023-04-07T03:43:34.578Z,5.30
2023-04-07T03:46:03.400Z,5.30
2023-04-07T03:48:35.796Z,5.28
2023-04-07T03:51:09.475Z,5.24
2023-04-07T03:53:39.329Z,5.21
2023-04-07T03:56:30.283Z,5.21
2023-04-07T03:59:00.755Z,5.25
2023-04-07T04:01:32.349Z,5.30
2023-04-07T04:04:06.402Z,5.34
2023-04-07T04:06:37.240Z,5.39
2023-04-07T04:09:12.486Z,5.42
2023-04-07T04:11:45.092Z,5.41
2023-04-07T04:14:16.092Z,5.42
2023-04-07T04:16:49.816Z,5.43
2023-04-07T04:19:26.761Z,5.43
2023-04-07T04:21:57.728Z,5.42
2023-04-07T04:24:26.846Z,5.40
2023-04-07T04:26:57.031Z,5.39
2023-04-07T04:29:25.473Z,5.38
2023-04-07T04:31:55.539Z,5.41
2023-04-07T04:34:26.683Z,5.43
2023-04-07T04:36:55.873Z,5.42
2023-04-07T04:39:24.259Z,5.42
2023-04-07T04:41:57.053Z,5.43
2023-04-07T04:44:30.840Z,5.43
2023-04-07T04:47:05.128Z,5.46
2023-04-07T04:49:33.785Z,5.50
2023-04-07T04:52:03.552Z,5.53
2023-04-07T04:54:38.856Z,5.53
2023-04-07T04:57:07.535Z,5.54
2023-04-07T04:59:42.728Z,5.59
2023-04-07T05:02:11.728Z,5.70
2023-04-07T05:04:40.809Z,5.85
2023-04-07T05:07:25.132Z,6.03
2023-04-07T05:09:57.449Z,6.19
2023-04-07T05:12:26.369Z,6.34
2023-04-07T05:14:59.785Z,6.46
2023-04-07T05:17:29.468Z,6.58
2023-04-07T05:19:58.582Z,6.73
2023-04-07T05:22:45.787Z,6.91
2023-04-07T05:25:16.583Z,7.09
2023-04-07T05:27:46.943Z,7.26
2023-04-07T05:30:22.094Z,7.44
2023-04-07T05:32:53.599Z,7.58
2023-04-07T05:35:33.389Z,7.69
2023-04-07T05:38:06.080Z,7.81
2023-04-07T05:40:37.295Z,7.91
2023-04-07T05:43:06.812Z,7.99
2023-04-07T05:45:36.411Z,8.08
2023-04-07T05:48:05.082Z,8.19
2023-04-07T05:50:41.960Z,8.28
2023-04-07T05:53:13.807Z,8.39
2023-04-07T05:55:43.818Z,8.46
2023-04-07T05:58:16.748Z,8.56
2023-04-07T06:00:46.864Z,8.72
2023-04-07T06:03:16.752Z,8.91
2023-04-07T06:05:55.522Z,9.09
2023-04-07T06:08:24.320Z,9.20
2023-04-07T06:10:52.699Z,9.28
2023-04-07T06:13:21.475Z,9.39
2023-04-07T06:15:50.964Z,9.45
2023-04-07T06:18:20.048Z,9.52
2023-04-07T06:20:48.606Z,9.67
2023-04-07T06:23:17.418Z,9.85
2023-04-07T06:25:46.351Z,10.00
2023-04-07T06:28:14.734Z,10.14
2023-04-07T06:30:44.218Z,10.29
2023-04-07T06:33:14.653Z,10.43
2023-04-07T06:35:43.000Z,10.60
2023-04-07T06:38:12.563Z,10.79
2023-04-07T06:40:41.329Z,10.97
2023-04-07T06:43:09.614Z,11.11
2023-04-07T06:45:42.155Z,11.25
2023-04-07T06:48:11.304Z,11.38
2023-04-07T06:50:41.717Z,11.52
2023-04-07T06:53:33.814Z,11.63
2023-04-07T06:56:05.186Z,11.65
2023-04-07T06:58:35.083Z,11.70
2023-04-07T07:01:09.507Z,11.68
2023-04-07T07:03:40.038Z,11.61
2023-04-07T07:06:08.842Z,11.62
2023-04-07T07:08:37.232Z,11.69
2023-04-07T07:11:05.760Z,11.82
2023-04-07T07:13:35.689Z,11.97
2023-04-07T07:16:04.621Z,12.10
2023-04-07T07:18:33.801Z,12.21
2023-04-07T07:21:02.543Z,12.33
2023-04-07T07:23:31.144Z,12.42
2023-04-07T07:26:00.242Z,12.50
2023-04-07T07:28:29.440Z,12.55
2023-04-07T07:30:58.239Z,12.60
2023-04-07T07:33:32.464Z,12.65
2023-04-07T07:36:00.911Z,12.71
2023-04-07T07:38:33.344Z,12.79
2023-04-07T07:41:03.367Z,12.85
2023-04-07T07:43:34.337Z,12.91
2023-04-07T07:46:02.720Z,12.97
2023-04-07T07:48:33.963Z,13.02
2023-04-07T07:51:02.412Z,13.05
2023-04-07T07:53:30.971Z,13.09
2023-04-07T07:56:01.412Z,13.10
2023-04-07T07:58:29.891Z,13.11
2023-04-07T08:00:59.662Z,13.13
2023-04-07T08:03:36.122Z,13.22
2023-04-07T08:06:06.603Z,13.25
2023-04-07T08:08:36.020Z,13.30
2023-04-07T08:11:04.449Z,13.35
2023-04-07T08:13:33.244Z,13.37
2023-04-07T08:16:01.914Z,13.41
2023-04-07T08:18:30.301Z,13.44
2023-04-07T08:20:58.486Z,13.54
2023-04-07T08:23:27.134Z,13.67
2023-04-07T08:25:55.675Z,13.83
2023-04-07T08:28:26.025Z,13.89
2023-04-07T08:30:54.153Z,13.93
2023-04-07T08:33:22.968Z,14.04
2023-04-07T08:35:52.283Z,14.16
2023-04-07T08:38:21.153Z,14.25
2023-04-07T08:40:50.864Z,14.32
2023-04-07T08:43:20.633Z,14.33
2023-04-07T08:45:49.025Z,14.34
2023-04-07T08:48:17.988Z,14.34
2023-04-07T08:50:46.407Z,14.29
2023-04-07T08:53:15.212Z,14.26
2023-04-07T08:55:43.426Z,14.22
2023-04-07T08:58:12.688Z,14.20
2023-04-07T09:00:42.386Z,14.20
2023-04-07T09:03:21.909Z,14.26
2023-04-07T09:05:51.394Z,14.33
2023-04-07T09:08:20.551Z,14.41
2023-04-07T09:10:51.518Z,14.47
2023-04-07T09:13:20.003Z,14.49
2023-04-07T09:15:48.148Z,14.53
2023-04-07T09:18:17.085Z,14.56
2023-04-07T09:21:02.567Z,14.56
2023-04-07T09:23:35.390Z,14.55
2023-04-07T09:26:25.294Z,14.56
2023-04-07T09:28:59.578Z,14.62
2023-04-07T09:31:50.719Z,14.72
2023-04-07T09:34:25.168Z,14.84
2023-04-07T09:36:57.736Z,14.90
2023-04-07T09:39:26.223Z,14.95
2023-04-07T09:41:54.682Z,15.01
2023-04-07T09:44:23.153Z,15.04
2023-04-07T09:46:56.775Z,14.99
2023-04-07T09:49:25.672Z,15.00
2023-04-07T09:52:07.864Z,15.06
2023-04-07T09:54:38.617Z,15.18
2023-04-07T09:57:09.620Z,15.30
2023-04-07T09:59:40.085Z,15.42
2023-04-07T10:02:08.854Z,15.50
2023-04-07T10:04:37.607Z,15.59
2023-04-07T10:07:06.127Z,15.69
2023-04-07T10:09:34.472Z,15.84
2023-04-07T10:12:02.998Z,15.89
2023-04-07T10:14:32.224Z,15.85
2023-04-07T10:17:03.714Z,15.86
2023-04-07T10:19:33.535Z,15.91
2023-04-07T10:22:02.313Z,15.97
2023-04-07T10:24:55.498Z,16.03
2023-04-07T10:27:53.927Z,16.02
2023-04-07T10:30:25.614Z,15.96
2023-04-07T10:32:56.380Z,16.01
2023-04-07T10:35:26.406Z,16.12
2023-04-07T10:38:07.363Z,16.28
2023-04-07T10:40:38.044Z,16.49
2023-04-07T10:43:12.239Z,16.70
2023-04-07T10:45:49.911Z,16.91
2023-04-07T10:48:19.263Z,17.08
2023-04-07T10:51:18.056Z,17.24
2023-04-07T10:54:18.482Z,17.46
2023-04-07T10:57:13.302Z,17.68
2023-04-07T11:00:12.139Z,17.92
2023-04-07T11:02:44.601Z,18.11
2023-04-07T11:05:23.093Z,18.25
2023-04-07T11:07:55.273Z,18.39
2023-04-07T11:10:37.857Z,18.47
2023-04-07T11:13:07.893Z,18.54
2023-04-07T11:15:39.341Z,18.66
2023-04-07T11:18:29.839Z,18.80
2023-04-07T11:20:59.333Z,18.94
2023-04-07T11:23:27.621Z,19.11
2023-04-07T11:26:02.863Z,19.39
2023-04-07T11:28:31.514Z,19.68
2023-04-07T11:31:01.983Z,19.93
2023-04-07T11:33:31.536Z,20.22
2023-04-07T11:36:01.095Z,20.29
2023-04-07T11:38:38.403Z,20.25
2023-04-07T11:41:14.326Z,20.27
2023-04-07T11:43:42.826Z,20.33
2023-04-07T11:46:14.766Z,20.41
2023-04-07T11:48:47.533Z,20.48
2023-04-07T11:51:20.023Z,20.53
2023-04-07T11:53:48.892Z,20.61
2023-04-07T11:56:18.932Z,20.66
2023-04-07T11:58:54.472Z,20.75
2023-04-07T12:01:24.892Z,20.90
2023-04-07T12:04:04.213Z,20.93
2023-04-07T12:06:39.014Z,20.93
2023-04-07T12:09:08.972Z,21.03
2023-04-07T12:11:37.415Z,21.14
2023-04-07T12:14:12.726Z,21.29
2023-04-07T12:16:41.112Z,21.39
2023-04-07T12:19:09.472Z,21.40
2023-04-07T12:21:44.444Z,21.32
2023-04-07T12:24:13.087Z,21.24
2023-04-07T12:26:41.443Z,21.30
2023-04-07T12:29:09.593Z,21.38
2023-04-07T12:31:38.565Z,21.50
2023-04-07T12:34:06.719Z,21.59
2023-04-07T12:36:35.429Z,21.75
2023-04-07T12:39:03.833Z,21.94
2023-04-07T12:41:33.721Z,22.07
2023-04-07T12:44:02.055Z,22.26
2023-04-07T12:46:32.417Z,22.35
2023-04-07T12:49:01.265Z,22.50
2023-04-07T12:51:29.835Z,22.61
2023-04-07T12:53:58.022Z,22.71
2023-04-07T12:56:26.497Z,22.77
2023-04-07T12:58:54.786Z,22.65
2023-04-07T13:01:23.956Z,22.36
2023-04-07T13:03:53.534Z,22.21
2023-04-07T13:06:24.654Z,22.16
2023-04-07T13:08:52.979Z,22.12
2023-04-07T13:11:22.140Z,22.25
2023-04-07T13:13:50.856Z,22.47
2023-04-07T13:16:20.105Z,22.74
2023-04-07T13:18:48.340Z,23.00
2023-04-07T13:21:43.685Z,23.24
2023-04-07T13:24:09.517Z,23.49
2023-04-07T13:26:38.518Z,23.71
2023-04-07T13:29:07.072Z,23.77
2023-04-07T13:31:35.391Z,23.49
2023-04-07T13:34:04.917Z,23.09
2023-04-07T13:36:33.626Z,22.80
2023-04-07T13:39:02.328Z,22.63
2023-04-07T13:41:30.871Z,22.50
2023-04-07T13:44:01.177Z,22.26
2023-04-07T13:46:52.588Z,21.86
2023-04-07T13:49:21.919Z,21.39
2023-04-07T13:51:50.045Z,20.88
2023-04-07T13:54:18.933Z,20.47
2023-04-07T13:56:49.207Z,20.22
2023-04-07T13:59:17.362Z,19.97
2023-04-07T14:01:46.111Z,19.64
2023-04-07T14:04:15.578Z,19.35
2023-04-07T14:06:43.931Z,19.17
2023-04-07T14:09:13.280Z,19.04
2023-04-07T14:11:41.756Z,18.87
2023-04-07T14:14:14.656Z,18.67
2023-04-07T14:16:44.692Z,18.45
2023-04-07T14:19:12.881Z,18.25
2023-04-07T14:21:46.024Z,18.05
2023-04-07T14:24:14.396Z,17.85
2023-04-07T14:26:45.683Z,17.67
2023-04-07T14:29:14.236Z,17.50
2023-04-07T14:31:42.937Z,17.36
2023-04-07T14:34:11.168Z,17.22
2023-04-07T14:36:39.878Z,17.08
2023-04-07T14:39:09.598Z,16.92
2023-04-07T14:41:38.286Z,16.75
2023-04-07T14:44:06.911Z,16.60
2023-04-07T14:46:38.344Z,16.46
2023-04-07T14:49:07.626Z,16.38
2023-04-07T14:51:35.895Z,16.29
2023-04-07T14:54:04.156Z,16.21
2023-04-07T14:56:33.697Z,16.13
2023-04-07T14:59:04.748Z,16.09
2023-04-07T15:01:33.952Z,16.06
2023-04-07T15:04:03.498Z,16.06
2023-04-07T15:06:32.210Z,16.06
2023-04-07T15:09:01.177Z,16.05
2023-04-07T15:11:29.850Z,16.06
2023-04-07T15:14:06.898Z,16.06
2023-04-07T15:16:35.897Z,16.05
2023-04-07T15:19:04.285Z,16.02
2023-04-07T15:21:32.478Z,15.98
2023-04-07T15:24:00.987Z,15.94
2023-04-07T15:26:29.561Z,15.89
2023-04-07T15:28:59.546Z,15.85
2023-04-07T15:31:30.485Z,15.81
2023-04-07T15:33:59.166Z,15.78
2023-04-07T15:36:27.512Z,15.73
2023-04-07T15:38:56.785Z,15.71
2023-04-07T15:41:24.972Z,15.69
2023-04-07T15:43:53.999Z,15.67
2023-04-07T15:46:22.589Z,15.64
2023-04-07T15:48:52.060Z,15.61
2023-04-07T15:51:20.306Z,15.57
2023-04-07T15:53:48.908Z,15.52
2023-04-07T15:56:17.294Z,15.48
2023-04-07T15:58:46.423Z,15.42
2023-04-07T16:01:14.804Z,15.33
2023-04-07T16:03:44.570Z,15.24
2023-04-07T16:06:13.623Z,15.15
2023-04-07T16:08:41.844Z,15.11
2023-04-07T16:11:11.226Z,15.06
2023-04-07T16:13:39.605Z,14.98
2023-04-07T16:16:07.904Z,14.90
2023-04-07T16:18:36.266Z,14.82
2023-04-07T16:21:08.019Z,14.75
2023-04-07T16:23:45.052Z,14.65
2023-04-07T16:26:13.344Z,14.56
2023-04-07T16:28:42.126Z,14.48
2023-04-07T16:31:12.553Z,14.39
2023-04-07T16:33:43.006Z,14.32
2023-04-07T16:36:11.585Z,14.24
2023-04-07T16:38:40.653Z,14.16
2023-04-07T16:41:08.996Z,14.09
2023-04-07T16:43:42.640Z,14.01
2023-04-07T16:46:12.939Z,13.94
2023-04-07T16:48:41.222Z,13.89
2023-04-07T16:51:09.475Z,13.83
2023-04-07T16:53:38.128Z,13.76
2023-04-07T16:56:07.517Z,13.71
2023-04-07T16:58:36.901Z,13.69
2023-04-07T17:01:05.107Z,13.69
2023-04-07T17:03:37.405Z,13.64
2023-04-07T17:06:05.900Z,13.57
2023-04-07T17:08:38.432Z,13.51
2023-04-07T17:11:09.055Z,13.44
2023-04-07T17:13:37.812Z,13.39
2023-04-07T17:16:12.972Z,13.35
2023-04-07T17:18:42.493Z,13.28
2023-04-07T17:21:10.797Z,13.21
2023-04-07T17:23:42.644Z,13.13
2023-04-07T17:26:11.803Z,13.06
2023-04-07T17:28:40.105Z,13.00
2023-04-07T17:31:13.520Z,12.94
2023-04-07T17:33:42.753Z,12.87
2023-04-07T17:36:10.951Z,12.80
2023-04-07T17:38:40.576Z,12.76
2023-04-07T17:41:09.175Z,12.72
2023-04-07T17:43:37.631Z,12.68
2023-04-07T17:46:06.389Z,12.64
2023-04-07T17:48:34.895Z,12.59
2023-04-07T17:51:03.362Z,12.53
2023-04-07T17:53:32.551Z,12.46
2023-04-07T17:56:01.773Z,12.40
2023-04-07T17:58:30.623Z,12.36
2023-04-07T18:00:59.430Z,12.32
2023-04-07T18:03:28.975Z,12.26
2023-04-07T18:05:59.118Z,12.20
2023-04-07T18:08:28.295Z,12.15
2023-04-07T18:11:07.423Z,12.10
2023-04-07T18:13:38.836Z,12.06
2023-04-07T18:16:09.614Z,12.02
2023-04-07T18:18:43.833Z,12.00
2023-04-07T18:21:12.164Z,11.96
2023-04-07T18:23:41.126Z,11.95
2023-04-07T18:26:09.980Z,11.94
2023-04-07T18:28:38.328Z,11.94
2023-04-07T18:31:10.037Z,11.92
2023-04-07T18:33:40.434Z,11.90
2023-04-07T18:36:08.744Z,11.87
2023-04-07T18:38:39.236Z,11.83
2023-04-07T18:41:08.992Z,11.81
2023-04-07T18:43:39.517Z,11.80
2023-04-07T18:46:07.846Z,11.77
2023-04-07T18:48:36.871Z,11.74
2023-04-07T18:51:05.301Z,11.71
2023-04-07T18:53:33.742Z,11.68
2023-04-07T18:56:02.881Z,11.67
2023-04-07T18:58:31.998Z,11.68
2023-04-07T19:01:00.661Z,11.66
2023-04-07T19:03:30.026Z,11.62
2023-04-07T19:05:59.113Z,11.58
2023-04-07T19:08:34.075Z,11.54
2023-04-07T19:11:02.568Z,11.51
2023-04-07T19:13:30.841Z,11.49
2023-04-07T19:15:59.183Z,11.47
2023-04-07T19:18:29.340Z,11.45
2023-04-07T19:20:58.239Z,11.43
2023-04-07T19:23:32.502Z,11.42
2023-04-07T19:26:01.128Z,11.40
2023-04-07T19:28:29.583Z,11.38
2023-04-07T19:30:58.659Z,11.37
2023-04-07T19:33:27.608Z,11.38
2023-04-07T19:35:56.570Z,11.41
2023-04-07T19:38:25.442Z,11.42
2023-04-07T19:40:54.010Z,11.43
2023-04-07T19:43:22.645Z,11.44
2023-04-07T19:45:51.111Z,11.44
2023-04-07T19:48:19.331Z,11.44
2023-04-07T19:50:49.734Z,11.43
2023-04-07T19:53:26.203Z,11.42
2023-04-07T19:55:56.206Z,11.41
2023-04-07T19:58:25.015Z,11.40
2023-04-07T20:00:55.327Z,11.37
2023-04-07T20:03:24.606Z,11.37
2023-04-07T20:05:53.221Z,11.38
2023-04-07T20:08:21.955Z,11.37
2023-04-07T20:10:52.674Z,11.34
2023-04-07T20:13:23.977Z,11.30
2023-04-07T20:15:53.972Z,11.26
2023-04-07T20:18:22.368Z,11.22
2023-04-07T20:21:01.380Z,11.18
2023-04-07T20:23:30.553Z,11.17
2023-04-07T20:25:59.009Z,11.18
2023-04-07T20:28:27.285Z,11.21
2023-04-07T20:30:55.944Z,11.25
2023-04-07T20:33:24.731Z,11.28
2023-04-07T20:35:54.862Z,11.32
2023-04-07T20:38:23.340Z,11.35
2023-04-07T20:40:54.417Z,11.36
2023-04-07T20:43:24.500Z,11.37
2023-04-07T20:45:53.109Z,11.37
2023-04-07T20:48:23.973Z,11.36
2023-04-07T20:50:53.055Z,11.32
2023-04-07T20:53:25.452Z,11.27
2023-04-07T20:55:54.025Z,11.22
2023-04-07T20:58:23.111Z,11.17
2023-04-07T21:00:56.815Z,11.15
2023-04-07T21:03:26.469Z,11.12
2023-04-07T21:05:54.984Z,11.10
2023-04-07T21:08:24.737Z,11.10
2023-04-07T21:10:53.489Z,11.09
2023-04-07T21:13:22.696Z,11.06
2023-04-07T21:15:51.728Z,11.04
2023-04-07T21:18:20.726Z,11.01
2023-04-07T21:20:49.109Z,10.99
2023-04-07T21:23:17.497Z,10.96
2023-04-07T21:25:45.679Z,10.97
2023-04-07T21:28:16.923Z,10.99
2023-04-07T21:30:45.985Z,11.00
2023-04-07T21:33:15.512Z,11.01
2023-04-07T21:35:45.066Z,11.01
2023-04-07T21:38:13.547Z,11.02
2023-04-07T21:40:43.856Z,11.01
2023-04-07T21:43:12.383Z,11.00
2023-04-07T21:45:40.679Z,10.97
2023-04-07T21:48:08.962Z,10.98
2023-04-07T21:50:37.280Z,11.03
2023-04-07T21:53:05.852Z,11.07
2023-04-07T21:55:33.951Z,11.08
2023-04-07T21:58:02.182Z,11.06
2023-04-07T22:00:33.953Z,11.02
2023-04-07T22:03:02.862Z,10.99
2023-04-07T22:05:32.970Z,10.95
2023-04-07T22:08:03.338Z,10.92
2023-04-07T22:10:31.717Z,10.87
2023-04-07T22:12:59.904Z,10.87
2023-04-07T22:15:28.565Z,10.91
2023-04-07T22:17:57.895Z,10.93
2023-04-07T22:20:29.288Z,10.92
2023-04-07T22:22:58.260Z,10.91
2023-04-07T22:25:26.497Z,10.90
2023-04-07T22:27:56.954Z,10.89
2023-04-07T22:30:26.437Z,10.87
2023-04-07T22:32:56.564Z,10.86
2023-04-07T22:35:24.747Z,10.85
2023-04-07T22:37:52.958Z,10.87
2023-04-07T22:40:21.949Z,10.89
2023-04-07T22:42:50.075Z,10.91
2023-04-07T22:45:19.497Z,10.94
2023-04-07T22:47:48.182Z,10.98
2023-04-07T22:50:16.881Z,10.99
2023-04-07T22:52:45.334Z,10.99
2023-04-07T22:55:13.484Z,10.98
2023-04-07T22:57:42.737Z,10.95
2023-04-07T23:00:11.921Z,10.90
2023-04-07T23:02:42.313Z,10.87
2023-04-07T23:05:12.075Z,10.84
2023-04-07T23:07:40.410Z,10.83
2023-04-07T23:10:10.933Z,10.80
2023-04-07T23:12:40.715Z,10.80
2023-04-07T23:15:09.232Z,10.85
2023-04-07T23:17:40.585Z,10.90
2023-04-07T23:20:10.029Z,10.95
2023-04-07T23:22:38.447Z,10.96
2023-04-07T23:25:07.447Z,10.95
2023-04-07T23:27:36.578Z,10.93
2023-04-07T23:30:05.330Z,10.90
2023-04-07T23:32:33.976Z,10.86
2023-04-07T23:35:02.821Z,10.83
2023-04-07T23:37:31.640Z,10.82
2023-04-07T23:39:59.830Z,10.83
2023-04-07T23:42:27.991Z,10.84
2023-04-07T23:44:56.357Z,10.80
2023-04-07T23:47:25.961Z,10.77
2023-04-07T23:49:54.404Z,10.76
2023-04-07T23:52:23.635Z,10.76
2023-04-07T23:54:51.890Z,10.75
2023-04-07T23:57:20.051Z,10.70
2023-04-07T23:59:49.288Z,10.67
